Time;durP1;ratioP1;P1;durP2;ratioP2;P2;SDS_P1;SDS_P2;PMS_P1;PMS_P2;Temp;Humidity;BMP_temperature;BMP_pressure;BME280_temperature;BME280_humidity;BME280_pressure;Samples;Min_cycle;Max_cycle;Signal;HPM_P1;HPM_P2
2023/09/25 00:00:20;;;;;;;3.80;2.78;;;;;;;12.87;65.37;101674.06;679457;29;1130;-93
2023/09/25 00:00:41;;;;;;;4.57;3.20;;;;;;;12.95;65.12;101686.53;677574;29;1370;-93
2023/09/25 00:01:02;;;;;;;4.88;3.35;;;;;;;12.89;65.10;101674.09;677402;29;1189;-92
2023/09/25 00:01:24;;;;;;;4.63;3.20;;;;;;;12.94;65.12;101684.75;677226;29;1264;-93
2023/09/25 00:01:46;;;;;;;6.10;3.20;;;;;;;12.94;65.23;101687.38;682875;29;1458;-92
2023/09/25 00:02:07;;;;;;;5.95;3.00;;;;;;;12.91;65.23;101687.25;685047;28;1902;-93
2023/09/25 00:02:32;;;;;;;5.72;2.90;;;;;;;12.87;65.27;101683.66;682660;29;1367;-93
2023/09/25 00:02:53;;;;;;;5.07;3.05;;;;;;;12.91;65.08;101693.38;676775;29;1407;-93
2023/09/25 00:03:15;;;;;;;4.68;3.00;;;;;;;12.82;65.35;101678.25;677228;29;1271;-92
2023/09/25 00:03:36;;;;;;;4.50;3.00;;;;;;;12.91;65.52;101693.38;677265;29;1800;-93
2023/09/25 00:03:56;;;;;;;4.40;3.00;;;;;;;12.90;65.33;101688.97;679866;29;1295;-94
2023/09/25 00:04:17;;;;;;;4.60;3.25;;;;;;;12.91;65.21;101692.50;679987;29;1285;-92
2023/09/25 00:04:38;;;;;;;4.93;3.33;;;;;;;12.85;65.29;101682.72;682472;29;1177;-93
2023/09/25 00:04:58;;;;;;;4.23;3.20;;;;;;;12.81;65.41;101680.81;679722;29;1307;-93
2023/09/25 00:07:19;;;;;;;5.68;3.30;;;;;;;12.83;65.32;101677.41;688259;28;782;-94
2023/09/25 00:07:58;;;;;;;6.35;3.40;;;;;;;12.84;65.48;101676.56;687251;28;1344;-93
2023/09/25 00:08:19;;;;;;;6.23;3.30;;;;;;;12.92;65.26;101689.94;682334;28;1692;-93
2023/09/25 00:08:39;;;;;;;5.38;3.20;;;;;;;12.89;65.47;101677.63;679852;29;1135;-93
2023/09/25 00:09:01;;;;;;;4.30;2.92;;;;;;;12.85;65.54;101680.97;682471;29;1248;-92
2023/09/25 00:09:23;;;;;;;3.72;2.80;;;;;;;12.80;65.60;101669.47;682068;28;1339;-93
2023/09/25 00:09:43;;;;;;;4.32;2.90;;;;;;;12.78;65.24;101665.00;682766;29;1431;-93
2023/09/25 00:10:07;;;;;;;4.30;2.80;;;;;;;12.79;65.51;101672.03;682421;29;1180;-93
2023/09/25 00:10:29;;;;;;;4.60;2.80;;;;;;;12.74;65.45;101664.00;684851;28;1364;-92
2023/09/25 00:10:50;;;;;;;3.90;2.50;;;;;;;12.74;65.25;101667.50;684738;28;1220;-93
2023/09/25 00:11:11;;;;;;;3.50;2.55;;;;;;;12.79;65.44;101672.03;679780;29;1346;-93
2023/09/25 00:11:32;;;;;;;5.88;3.10;;;;;;;12.74;65.53;101677.13;681731;29;1074;-93
2023/09/25 00:11:53;;;;;;;5.75;3.10;;;;;;;12.79;65.43;101680.75;677217;29;1369;-92
2023/09/25 00:12:14;;;;;;;5.43;2.85;;;;;;;12.70;65.47;101667.34;677279;29;1272;-93
2023/09/25 00:12:35;;;;;;;3.13;2.50;;;;;;;12.73;65.68;101673.59;679105;29;1272;-93
2023/09/25 00:12:55;;;;;;;3.47;2.65;;;;;;;12.74;65.28;101677.97;685133;28;1215;-92
2023/09/25 00:13:16;;;;;;;3.47;2.67;;;;;;;12.71;65.77;101677.88;679884;29;1254;-93
2023/09/25 00:13:36;;;;;;;3.78;2.60;;;;;;;12.72;65.68;101678.78;679712;29;1068;-93
2023/09/25 00:13:57;;;;;;;3.75;2.60;;;;;;;12.68;65.51;101666.41;685257;28;1188;-93
2023/09/25 00:14:19;;;;;;;4.43;2.80;;;;;;;12.73;65.52;101684.06;680070;29;1264;-93
2023/09/25 00:14:40;;;;;;;5.60;3.17;;;;;;;12.75;65.83;101678.88;684837;28;1238;-93
2023/09/25 00:15:02;;;;;;;5.73;3.20;;;;;;;12.67;65.91;101664.66;682288;29;1218;-92
2023/09/25 00:15:22;;;;;;;5.28;3.47;;;;;;;12.74;65.60;101669.25;682709;28;1248;-93
2023/09/25 00:15:44;;;;;;;6.15;3.25;;;;;;;12.70;65.75;101665.63;680279;29;1309;-93
2023/09/25 00:16:07;;;;;;;5.25;3.20;;;;;;;12.75;65.71;101678.88;677307;29;1282;-93
2023/09/25 00:16:27;;;;;;;5.63;3.10;;;;;;;12.75;65.60;101674.56;678079;29;1380;-92
2023/09/25 00:16:48;;;;;;;4.40;3.20;;;;;;;12.71;65.58;101669.13;682591;28;1305;-92
2023/09/25 00:17:09;;;;;;;4.13;3.00;;;;;;;12.73;65.50;101677.97;685397;28;1204;-92
2023/09/25 00:17:30;;;;;;;3.20;2.80;;;;;;;12.71;65.62;101669.13;687962;28;1153;-93
2023/09/25 00:17:51;;;;;;;3.58;2.80;;;;;;;12.65;65.57;101659.34;684521;28;1249;-92
2023/09/25 00:18:14;;;;;;;4.18;3.00;;;;;;;12.70;65.60;101667.34;679903;29;1269;-94
2023/09/25 00:18:34;;;;;;;4.53;3.20;;;;;;;12.71;65.47;101674.38;682761;29;1366;-92
2023/09/25 00:18:55;;;;;;;4.18;3.10;;;;;;;12.71;65.56;101669.13;677183;29;1177;-93
2023/09/25 00:19:16;;;;;;;3.93;3.00;;;;;;;12.69;65.63;101676.97;685049;28;1163;-92
2023/09/25 00:19:36;;;;;;;4.25;3.13;;;;;;;12.72;65.80;101679.66;680014;29;1206;-93
2023/09/25 00:19:57;;;;;;;3.70;3.00;;;;;;;12.64;65.90;101656.69;684957;28;1193;-93
2023/09/25 00:20:24;;;;;;;4.10;3.00;;;;;;;12.71;65.77;101667.41;682266;28;1217;-93
2023/09/25 00:20:44;;;;;;;3.97;3.00;;;;;;;12.74;65.86;101680.59;679495;29;1635;-92
2023/09/25 00:21:05;;;;;;;4.00;3.13;;;;;;;12.67;65.59;101667.25;677132;29;1172;-93
2023/09/25 00:21:26;;;;;;;4.32;3.20;;;;;;;12.70;65.61;101667.34;681828;29;1028;-93
2023/09/25 00:21:47;;;;;;;5.13;3.30;;;;;;;12.63;65.72;101655.78;677438;29;1295;-93
2023/09/25 00:22:07;;;;;;;5.07;3.40;;;;;;;12.71;65.88;101674.38;682453;29;1918;-93
2023/09/25 00:22:28;;;;;;;4.28;3.00;;;;;;;12.61;65.71;101655.72;684821;28;1196;-93
2023/09/25 00:22:51;;;;;;;3.70;3.03;;;;;;;12.65;65.92;101667.19;685208;28;1213;-93
2023/09/25 00:23:11;;;;;;;3.42;2.80;;;;;;;12.61;65.82;101663.59;682816;29;1256;-93
2023/09/25 00:23:32;;;;;;;4.13;3.00;;;;;;;12.60;66.22;101661.81;686944;28;791;-93
2023/09/25 00:23:53;;;;;;;4.53;2.70;;;;;;;12.62;65.84;101669.72;682233;28;1194;-92
2023/09/25 00:24:14;;;;;;;4.50;2.80;;;;;;;12.56;65.94;101653.81;682731;29;1164;-92
2023/09/25 00:24:35;;;;;;;4.38;2.90;;;;;;;12.57;65.74;101658.19;681852;29;1179;-93
2023/09/25 00:24:56;;;;;;;4.68;3.15;;;;;;;12.61;65.93;101666.22;682535;29;1181;-93
2023/09/25 00:25:22;;;;;;;5.60;3.33;;;;;;;12.61;65.82;101667.94;679591;29;1258;-93
2023/09/25 00:25:43;;;;;;;5.60;3.20;;;;;;;12.54;66.02;101656.34;685341;28;1249;-93
2023/09/25 00:26:08;;;;;;;5.03;3.13;;;;;;;12.56;66.30;101659.94;687608;28;1141;-94
2023/09/25 00:26:30;;;;;;;5.32;3.40;;;;;;;12.59;66.15;101664.38;681407;29;1368;-93
2023/09/25 00:26:52;;;;;;;4.32;3.22;;;;;;;12.61;65.97;101663.59;682373;29;1373;-93
2023/09/25 00:27:13;;;;;;;4.38;3.15;;;;;;;12.64;66.14;101672.41;687994;28;1268;-92
2023/09/25 00:27:34;;;;;;;4.22;2.95;;;;;;;12.58;66.29;101663.50;681716;29;1262;-93
2023/09/25 00:27:55;;;;;;;4.43;3.30;;;;;;;12.57;66.14;101659.09;684866;28;1221;-93
2023/09/25 00:28:16;;;;;;;4.28;3.40;;;;;;;12.60;66.23;101664.44;686907;28;1354;-93
2023/09/25 00:28:39;;;;;;;3.88;3.40;;;;;;;12.56;66.32;101665.19;688946;28;1526;-93
2023/09/25 00:28:59;;;;;;;4.18;3.10;;;;;;;12.58;66.00;101663.50;682452;28;1345;-92
2023/09/25 00:29:20;;;;;;;4.80;3.03;;;;;;;12.53;66.06;101657.19;682470;28;1345;-92
2023/09/25 00:29:40;;;;;;;5.80;3.20;;;;;;;12.56;66.04;101667.81;679972;29;1227;-94
2023/09/25 00:30:11;;;;;;;5.93;3.37;;;;;;;12.54;66.39;101664.22;677047;29;1199;-92
2023/09/25 00:30:32;;;;;;;5.03;3.20;;;;;;;12.51;66.37;101658.88;677522;29;1353;-93
2023/09/25 00:30:53;;;;;;;4.57;2.95;;;;;;;12.53;66.06;101659.81;679547;29;1309;-92
2023/09/25 00:31:14;;;;;;;5.03;2.90;;;;;;;12.57;66.23;101666.06;682621;29;1183;-93
2023/09/25 00:31:36;;;;;;;5.13;3.00;;;;;;;12.46;66.15;101658.72;680872;29;1293;-93
2023/09/25 00:31:57;;;;;;;4.70;3.13;;;;;;;12.49;66.15;101663.19;679794;29;1213;-93
2023/09/25 00:32:18;;;;;;;4.30;3.20;;;;;;;12.49;66.18;101660.56;679974;29;1262;-94
2023/09/25 00:32:40;;;;;;;4.28;3.17;;;;;;;12.47;66.31;101659.59;682845;29;1224;-93
2023/09/25 00:33:02;;;;;;;4.80;3.10;;;;;;;12.50;66.11;101662.34;679021;29;1269;-93
2023/09/25 00:33:23;;;;;;;4.97;3.20;;;;;;;12.44;66.00;101659.50;679518;29;1427;-93
2023/09/25 00:33:44;;;;;;;5.03;3.33;;;;;;;12.48;66.24;101666.66;680035;29;1478;-92
2023/09/25 00:34:05;;;;;;;4.35;3.15;;;;;;;12.48;66.23;101661.41;684900;28;1298;-93
2023/09/25 00:34:26;;;;;;;5.00;3.05;;;;;;;12.52;66.39;101668.53;682443;28;1319;-93
2023/09/25 00:34:47;;;;;;;5.15;2.90;;;;;;;12.54;66.37;101677.31;685098;28;1162;-93
2023/09/25 00:35:10;;;;;;;5.97;3.00;;;;;;;12.48;66.28;101662.28;680441;28;1354;-92
2023/09/25 00:35:31;;;;;;;4.47;3.00;;;;;;;12.51;66.20;101668.44;683780;28;1338;-93
2023/09/25 00:35:56;;;;;;;4.15;2.90;;;;;;;12.42;66.55;101656.84;679860;29;1204;-93
2023/09/25 00:36:18;;;;;;;4.30;2.80;;;;;;;12.55;66.09;101676.47;679870;29;1382;-93
2023/09/25 00:36:38;;;;;;;4.40;2.80;;;;;;;12.51;66.22;101664.13;682756;29;1297;-93
2023/09/25 00:36:59;;;;;;;3.67;2.50;;;;;;;12.44;66.17;101662.13;679542;29;1181;-93
2023/09/25 00:37:21;;;;;;;3.83;2.70;;;;;;;12.51;66.37;101671.97;680072;29;1375;-93
2023/09/25 00:37:43;;;;;;;4.35;2.80;;;;;;;12.49;66.37;101668.44;682222;28;1194;-92
2023/09/25 00:38:04;;;;;;;4.57;3.00;;;;;;;12.50;66.27;101680.66;679479;29;1174;-93
2023/09/25 00:38:24;;;;;;;4.68;3.20;;;;;;;12.43;66.24;101658.59;687230;28;1293;-93
2023/09/25 00:38:45;;;;;;;4.82;3.13;;;;;;;12.50;66.24;101671.91;685579;28;878;-93
2023/09/25 00:39:07;;;;;;;4.60;3.20;;;;;;;12.48;66.14;101671.88;679884;29;1194;-93
2023/09/25 00:39:28;;;;;;;5.32;3.13;;;;;;;12.41;66.54;101654.19;681816;29;1361;-93
2023/09/25 00:39:49;;;;;;;4.50;2.90;;;;;;;12.45;66.58;101662.19;681933;28;1418;-93
2023/09/25 00:40:18;;;;;;;4.43;2.73;;;;;;;12.47;66.45;101670.06;685277;28;1292;-92
2023/09/25 00:40:38;;;;;;;4.28;2.65;;;;;;;12.46;66.26;101665.69;680448;28;1201;-92
2023/09/25 00:41:00;;;;;;;4.32;2.83;;;;;;;12.48;66.28;101674.50;685142;28;1191;-92
2023/09/25 00:41:21;;;;;;;5.13;3.00;;;;;;;12.44;66.51;101664.75;686308;28;1505;-93
2023/09/25 00:41:41;;;;;;;4.45;3.20;;;;;;;12.41;66.54;101670.75;685012;28;1320;-93
2023/09/25 00:42:02;;;;;;;4.10;3.10;;;;;;;12.39;66.53;101658.44;682388;28;1226;-94
2023/09/25 00:42:23;;;;;;;3.40;2.80;;;;;;;12.49;66.42;101678.91;682470;28;1919;-93
2023/09/25 00:42:55;;;;;;;3.40;2.70;;;;;;;12.39;66.27;101655.84;685398;28;1396;-91
2023/09/25 00:43:16;;;;;;;3.70;2.63;;;;;;;12.48;66.32;101671.88;682411;28;1360;-93
2023/09/25 00:43:37;;;;;;;3.80;2.80;;;;;;;12.44;66.61;101667.38;679494;29;1275;-93
2023/09/25 00:43:58;;;;;;;3.47;2.75;;;;;;;12.40;66.52;101655.91;684981;28;1214;-93
2023/09/25 00:44:19;;;;;;;3.65;2.80;;;;;;;12.47;66.47;101670.06;679497;29;1264;-93
2023/09/25 00:44:41;;;;;;;3.80;2.88;;;;;;;12.41;66.51;101659.41;682698;29;1328;-93
2023/09/25 00:45:01;;;;;;;3.05;2.70;;;;;;;12.43;66.62;101662.97;684624;28;1170;-93
2023/09/25 00:45:23;;;;;;;3.15;2.67;;;;;;;12.47;66.55;101676.22;684528;28;1293;-94
2023/09/25 00:45:45;;;;;;;3.75;2.67;;;;;;;12.39;66.45;101659.34;682675;28;1312;-93
2023/09/25 00:46:06;;;;;;;5.22;3.25;;;;;;;12.43;66.35;101663.84;679253;29;1341;-93
2023/09/25 00:46:27;;;;;;;5.38;3.30;;;;;;;12.37;66.33;101660.13;683048;28;1177;-93
2023/09/25 00:46:48;;;;;;;5.47;3.38;;;;;;;12.40;66.53;101665.50;679847;29;1239;-92
2023/09/25 00:53:37;;;;;;;4.25;3.03;;;;;;;12.41;66.57;101673.38;690698;28;686;-93
2023/09/25 00:54:15;;;;;;;3.60;2.70;;;;;;;12.34;66.61;101656.56;687795;28;1520;-92
2023/09/25 00:54:36;;;;;;;3.70;2.70;;;;;;;12.38;66.33;101664.53;685291;28;1224;-94
2023/09/25 00:54:59;;;;;;;3.67;2.65;;;;;;;12.33;66.31;101657.41;684206;28;1373;-93
2023/09/25 00:55:20;;;;;;;4.35;2.80;;;;;;;12.36;66.31;101663.59;679537;29;1672;-93
2023/09/25 00:55:41;;;;;;;4.25;2.90;;;;;;;12.36;66.01;101671.44;677629;29;1399;-93
2023/09/25 00:56:02;;;;;;;4.38;2.90;;;;;;;12.34;66.24;101660.91;681969;29;1238;-93
2023/09/25 00:56:23;;;;;;;3.42;2.70;;;;;;;12.28;66.58;101653.75;684515;28;1226;-93
2023/09/25 00:56:46;;;;;;;3.65;2.70;;;;;;;12.42;66.46;101676.91;680153;29;1261;-93
2023/09/25 00:57:09;;;;;;;4.18;3.03;;;;;;;12.33;66.48;101661.75;679770;29;1254;-93
2023/09/25 00:57:34;;;;;;;4.93;3.38;;;;;;;12.31;66.14;101661.69;680885;29;1196;-93
2023/09/25 00:57:55;;;;;;;4.28;3.33;;;;;;;12.38;66.27;101673.28;684523;28;1257;-94
2023/09/25 00:58:17;;;;;;;4.05;3.00;;;;;;;12.30;66.42;101652.06;679753;29;1368;-93
2023/09/25 00:58:37;;;;;;;4.10;2.80;;;;;;;12.35;66.48;101670.53;682594;29;1290;-93
2023/09/25 00:58:58;;;;;;;3.67;2.60;;;;;;;12.29;66.44;101660.75;685058;28;1205;-93
2023/09/25 00:59:21;;;;;;;3.33;2.60;;;;;;;12.24;66.34;101651.88;679152;29;1272;-93
2023/09/25 00:59:42;;;;;;;3.97;2.83;;;;;;;12.30;66.46;101656.41;677638;29;1235;-92
2023/09/25 01:00:03;;;;;;;4.43;3.03;;;;;;;12.34;66.21;101668.75;676658;29;1163;-92
2023/09/25 01:00:26;;;;;;;4.43;2.85;;;;;;;12.38;66.42;101673.28;682129;29;1098;-93
2023/09/25 01:00:47;;;;;;;4.50;2.80;;;;;;;12.27;66.22;101658.91;685263;28;1173;-93
2023/09/25 01:01:08;;;;;;;4.40;2.78;;;;;;;12.29;66.44;101655.50;682511;29;1261;-93
2023/09/25 01:01:29;;;;;;;4.20;2.80;;;;;;;12.26;66.35;101660.66;680637;29;1308;-92
2023/09/25 01:01:50;;;;;;;3.85;2.85;;;;;;;12.28;66.33;101658.97;682083;29;1336;-93
2023/09/25 01:02:10;;;;;;;4.80;3.05;;;;;;;12.23;66.37;101655.28;684223;28;1914;-93
2023/09/25 01:02:32;;;;;;;9.25;3.35;;;;;;;12.27;66.50;101664.16;676816;29;1159;-92
2023/09/25 01:02:53;;;;;;;8.63;3.08;;;;;;;12.28;66.58;101658.09;679409;29;1408;-93
2023/09/25 01:03:14;;;;;;;8.45;3.17;;;;;;;12.26;66.44;101659.75;682581;29;1234;-93
2023/09/25 01:03:35;;;;;;;5.53;3.20;;;;;;;12.30;66.54;101662.53;681746;28;1192;-92
2023/09/25 01:03:56;;;;;;;5.68;3.22;;;;;;;12.27;66.33;101656.28;684959;28;1194;-92
2023/09/25 01:04:17;;;;;;;5.32;3.00;;;;;;;12.33;66.34;101667.88;679407;29;1394;-93
2023/09/25 01:04:38;;;;;;;6.75;2.95;;;;;;;12.31;66.26;101664.31;678525;29;1313;-93
2023/09/25 01:05:03;;;;;;;7.00;3.20;;;;;;;12.33;66.37;101664.38;679767;29;1179;-92
2023/09/25 01:05:24;;;;;;;5.95;3.30;;;;;;;12.31;66.51;101661.69;679415;29;1392;-93
2023/09/25 01:05:45;;;;;;;4.53;3.50;;;;;;;12.30;66.18;101662.53;685424;28;1280;-93
2023/09/25 01:06:07;;;;;;;4.20;3.28;;;;;;;12.31;66.25;101668.66;677239;29;1364;-93
2023/09/25 01:06:28;;;;;;;3.95;3.00;;;;;;;12.30;66.45;101667.75;675378;29;1291;-92
2023/09/25 01:06:49;;;;;;;4.00;3.05;;;;;;;12.31;66.42;101664.31;676709;29;1077;-93
2023/09/25 01:07:10;;;;;;;4.10;3.10;;;;;;;12.30;66.44;101665.16;682232;28;1186;-93
2023/09/25 01:07:30;;;;;;;3.92;3.08;;;;;;;12.25;66.19;101644.88;680914;29;1297;-93
2023/09/25 01:07:52;;;;;;;3.77;2.90;;;;;;;12.26;66.46;101658.03;687630;28;1260;-93
2023/09/25 01:08:12;;;;;;;4.57;3.13;;;;;;;12.21;66.47;101646.50;687768;28;1278;-91
2023/09/25 01:08:33;;;;;;;5.87;3.57;;;;;;;12.31;66.19;101669.53;685095;28;1257;-92
2023/09/25 01:08:55;;;;;;;6.90;3.42;;;;;;;12.28;66.35;101658.97;686822;28;1241;-93
2023/09/25 01:09:18;;;;;;;5.72;3.30;;;;;;;12.21;66.22;101654.34;685065;28;1298;-93
2023/09/25 01:09:39;;;;;;;6.00;2.95;;;;;;;12.30;66.13;101673.00;677475;29;1371;-93
2023/09/25 01:10:05;;;;;;;4.67;3.00;;;;;;;12.28;66.54;101669.44;679273;29;1177;-94
2023/09/25 01:10:26;;;;;;;3.95;2.97;;;;;;;12.26;66.16;101663.28;682169;29;1226;-93
2023/09/25 01:10:47;;;;;;;3.80;2.80;;;;;;;12.26;66.37;101660.66;685140;28;1205;-93
2023/09/25 01:11:08;;;;;;;4.10;2.88;;;;;;;12.27;66.32;101672.91;682251;29;1170;-93
2023/09/25 01:11:29;;;;;;;4.20;2.97;;;;;;;12.24;66.44;101656.19;675071;29;1221;-93
2023/09/25 01:11:49;;;;;;;4.30;3.07;;;;;;;12.16;66.27;101654.19;682578;29;1223;-93
2023/09/25 01:12:10;;;;;;;3.90;2.80;;;;;;;12.17;66.54;101661.22;682361;28;1086;-93
2023/09/25 01:12:32;;;;;;;3.95;2.80;;;;;;;12.15;66.50;101660.28;684189;28;1362;-94
2023/09/25 01:12:53;;;;;;;3.70;2.70;;;;;;;12.17;66.68;101663.81;681605;28;1295;-93
2023/09/25 01:13:15;;;;;;;4.18;2.90;;;;;;;12.20;66.58;101661.34;679712;29;1186;-93
2023/09/25 01:13:35;;;;;;;4.18;3.00;;;;;;;12.23;66.56;101668.38;685244;28;1236;-93
2023/09/25 01:13:56;;;;;;;4.57;3.20;;;;;;;12.23;66.42;101671.00;684551;28;1217;-93
2023/09/25 01:14:17;;;;;;;4.22;3.22;;;;;;;12.18;66.56;101656.88;679880;29;1120;-93
2023/09/25 01:14:38;;;;;;;4.47;3.10;;;;;;;12.19;66.29;101666.50;681870;29;1281;-94
2023/09/25 01:14:59;;;;;;;4.18;2.97;;;;;;;12.14;66.35;101660.22;678978;29;1262;-93
2023/09/25 01:15:20;;;;;;;4.00;3.00;;;;;;;12.19;66.29;101663.88;679888;29;1260;-92
2023/09/25 01:15:41;;;;;;;3.47;2.80;;;;;;;12.22;66.52;101674.44;682231;28;1199;-92
2023/09/25 01:16:02;;;;;;;3.78;2.80;;;;;;;12.18;66.65;101672.56;679891;29;1344;-92
2023/09/25 01:16:23;;;;;;;3.90;2.60;;;;;;;12.13;66.50;101659.34;680740;29;1383;-93
2023/09/25 01:16:44;;;;;;;4.00;2.80;;;;;;;12.16;66.52;101663.78;682404;29;1262;-93
2023/09/25 01:17:05;;;;;;;3.83;2.80;;;;;;;12.21;66.27;101670.06;679876;29;1395;-92
2023/09/25 01:17:26;;;;;;;4.00;3.00;;;;;;;12.16;66.47;101664.66;685368;28;1209;-93
2023/09/25 01:17:47;;;;;;;4.00;2.80;;;;;;;12.16;66.81;101666.41;685302;28;1206;-92
2023/09/25 01:18:11;;;;;;;3.53;2.77;;;;;;;12.20;66.41;101671.81;682195;29;1161;-92
2023/09/25 01:18:31;;;;;;;3.00;2.67;;;;;;;12.16;66.56;101664.66;682232;28;1343;-93
2023/09/25 01:18:52;;;;;;;3.17;2.88;;;;;;;12.13;66.35;101656.72;685019;28;1316;-93
2023/09/25 01:19:13;;;;;;;3.50;3.13;;;;;;;12.10;66.38;101651.34;682647;28;1286;-92
2023/09/25 01:19:34;;;;;;;4.10;3.15;;;;;;;12.16;66.37;101662.03;677342;29;1365;-93
2023/09/25 01:19:55;;;;;;;4.65;3.28;;;;;;;12.16;66.48;101663.78;676642;29;1191;-93
2023/09/25 01:20:20;;;;;;;4.40;3.20;;;;;;;12.15;66.54;101668.13;679777;29;1247;-92
2023/09/25 01:20:40;;;;;;;4.97;3.58;;;;;;;12.19;66.47;101677.84;685236;28;1313;-93
2023/09/25 01:21:03;;;;;;;4.30;3.38;;;;;;;12.18;66.84;101667.34;679767;29;1101;-91
2023/09/25 01:21:25;;;;;;;4.30;3.38;;;;;;;12.14;66.53;101665.44;676528;29;1344;-92
2023/09/25 01:21:46;;;;;;;4.82;3.40;;;;;;;12.18;66.69;101667.34;682519;29;1369;-93
2023/09/25 01:22:07;;;;;;;4.90;3.30;;;;;;;12.19;66.20;101666.50;681447;28;1287;-92
2023/09/25 01:22:28;;;;;;;5.50;3.40;;;;;;;12.15;66.41;101661.97;687864;28;1977;-94
2023/09/25 01:22:50;;;;;;;4.18;2.92;;;;;;;12.16;66.69;101663.78;684551;28;1212;-93
2023/09/25 01:23:11;;;;;;;7.05;3.00;;;;;;;12.17;66.34;101673.41;682186;28;1411;-92
2023/09/25 01:23:31;;;;;;;6.70;2.80;;;;;;;12.12;66.33;101668.03;684119;28;1365;-92
2023/09/25 01:23:52;;;;;;;6.78;3.10;;;;;;;12.11;66.61;101660.09;682355;29;1294;-92
2023/09/25 01:24:13;;;;;;;4.18;2.83;;;;;;;12.14;66.34;101665.44;685066;28;1246;-92
2023/09/25 01:24:34;;;;;;;4.90;3.13;;;;;;;12.13;66.61;101674.13;677463;29;1256;-92
2023/09/25 01:24:54;;;;;;;4.67;3.00;;;;;;;12.14;66.53;101670.66;684608;28;1177;-92
2023/09/25 01:25:17;;;;;;;4.32;3.00;;;;;;;12.09;66.74;101661.78;679773;29;1224;-93
2023/09/25 01:25:37;;;;;;;4.38;3.03;;;;;;;12.07;66.68;101656.50;682762;28;1292;-92
2023/09/25 01:25:59;;;;;;;5.35;3.05;;;;;;;12.14;66.58;101668.97;684106;28;1406;-93
2023/09/25 01:26:20;;;;;;;5.95;3.20;;;;;;;12.09;66.64;101662.66;677234;29;1306;-92
2023/09/25 01:26:42;;;;;;;5.53;3.08;;;;;;;12.15;66.60;101667.22;685219;28;1208;-92
2023/09/25 01:27:03;;;;;;;4.27;3.10;;;;;;;12.09;66.56;101667.03;681507;28;1185;-93
2023/09/25 01:27:24;;;;;;;3.97;2.90;;;;;;;12.13;66.46;101671.50;685116;28;1209;-92
2023/09/25 01:27:47;;;;;;;4.78;2.95;;;;;;;12.05;66.45;101666.88;680065;29;1150;-92
2023/09/25 01:28:09;;;;;;;4.50;2.90;;;;;;;12.04;66.79;101664.25;682326;29;1416;-93
2023/09/25 01:28:30;;;;;;;3.67;2.75;;;;;;;12.08;66.62;101660.88;679422;29;1264;-93
2023/09/25 01:28:51;;;;;;;3.53;2.95;;;;;;;12.05;66.53;101661.66;677117;29;1093;-92
2023/09/25 01:29:12;;;;;;;3.60;3.10;;;;;;;12.09;66.52;101674.88;677173;29;1175;-93
2023/09/25 01:29:33;;;;;;;3.70;3.22;;;;;;;12.03;66.91;101660.72;678694;29;1255;-92
2023/09/25 01:29:54;;;;;;;3.28;2.95;;;;;;;12.07;66.72;101674.81;681838;28;1193;-93
2023/09/25 01:30:16;;;;;;;4.10;2.90;;;;;;;12.03;66.68;101665.94;682148;29;1214;-93
2023/09/25 01:30:37;;;;;;;4.35;3.00;;;;;;;12.00;66.70;101659.72;677206;29;1288;-92
2023/09/25 01:30:58;;;;;;;4.77;3.20;;;;;;;12.01;66.45;101670.25;679656;29;1234;-93
2023/09/25 01:31:19;;;;;;;4.35;3.22;;;;;;;12.01;66.74;101667.63;679766;29;1280;-92
2023/09/25 01:31:40;;;;;;;4.13;3.10;;;;;;;12.02;66.82;101665.88;679323;29;1335;-92
2023/09/25 01:32:00;;;;;;;3.67;2.72;;;;;;;11.99;66.71;101661.44;682420;29;1182;-93
2023/09/25 01:32:21;;;;;;;3.13;2.47;;;;;;;12.03;66.53;101671.19;682369;28;1174;-93
2023/09/25 01:32:44;;;;;;;7.07;2.47;;;;;;;12.00;66.77;101665.84;682452;29;1220;-92
2023/09/25 01:33:05;;;;;;;9.13;2.90;;;;;;;12.03;66.84;101680.75;679585;29;1372;-93
2023/09/25 01:33:26;;;;;;;6.47;3.00;;;;;;;11.92;66.96;101649.84;682353;29;1205;-94
2023/09/25 01:33:50;;;;;;;3.78;3.00;;;;;;;11.99;66.86;101665.78;679812;29;1352;-93
2023/09/25 01:34:11;;;;;;;3.40;2.78;;;;;;;11.99;66.72;101665.78;679375;29;1245;-92
2023/09/25 01:34:34;;;;;;;4.47;2.70;;;;;;;11.98;66.71;101664.88;682430;29;1218;-93
2023/09/25 01:34:55;;;;;;;4.30;2.78;;;;;;;11.98;66.89;101670.13;682504;28;1296;-93
2023/09/25 01:35:18;;;;;;;4.30;2.90;;;;;;;12.00;66.80;101668.47;682430;28;1535;-92
2023/09/25 01:35:41;;;;;;;4.30;3.20;;;;;;;11.99;66.90;101671.88;680749;28;1278;-93
2023/09/25 01:36:02;;;;;;;4.65;3.30;;;;;;;11.97;66.63;101668.34;682249;29;1274;-93
2023/09/25 01:36:23;;;;;;;4.78;3.33;;;;;;;11.99;66.90;101673.63;679449;29;1311;-92
2023/09/25 01:36:44;;;;;;;4.75;3.25;;;;;;;11.96;66.71;101658.72;674775;29;1285;-93
2023/09/25 01:37:05;;;;;;;4.80;3.30;;;;;;;11.98;66.95;101664.00;679633;29;1150;-93
2023/09/25 01:37:26;;;;;;;3.83;2.83;;;;;;;11.97;66.87;101667.47;676770;29;1483;-93
2023/09/25 01:37:48;;;;;;;3.70;2.80;;;;;;;11.95;66.89;101664.78;677227;29;1431;-92
2023/09/25 01:38:09;;;;;;;3.78;2.75;;;;;;;11.92;67.06;101660.31;682407;29;1156;-93
2023/09/25 01:38:31;;;;;;;4.70;3.10;;;;;;;11.96;66.86;101670.88;684297;28;1231;-93
2023/09/25 01:38:51;;;;;;;5.00;3.28;;;;;;;11.95;66.64;101656.03;682047;29;1227;-93
2023/09/25 01:39:12;;;;;;;4.70;3.20;;;;;;;11.97;66.89;101670.09;679852;29;1294;-91
2023/09/25 01:39:35;;;;;;;4.00;3.00;;;;;;;11.95;66.95;101669.09;679752;29;1445;-92
2023/09/25 01:39:55;;;;;;;3.13;2.67;;;;;;;11.92;66.99;101662.03;677028;29;1202;-93
2023/09/25 01:40:17;;;;;;;4.03;3.00;;;;;;;12.00;66.75;101671.09;681933;29;1268;-92
2023/09/25 01:40:38;;;;;;;4.20;2.95;;;;;;;11.92;67.06;101660.31;679184;29;1342;-93
2023/09/25 01:40:59;;;;;;;4.43;3.00;;;;;;;11.93;66.82;101666.47;679751;29;1143;-93
2023/09/25 01:41:19;;;;;;;5.10;2.95;;;;;;;11.93;66.68;101662.09;682315;28;1290;-93
2023/09/25 01:41:40;;;;;;;4.85;3.03;;;;;;;11.91;67.02;101657.63;686661;28;1467;-93
2023/09/25 01:42:03;;;;;;;4.57;3.00;;;;;;;11.95;67.02;101659.56;686152;28;1087;-93
2023/09/25 01:42:24;;;;;;;3.78;3.10;;;;;;;11.93;67.10;101661.22;679196;29;1974;-93
2023/09/25 01:42:47;;;;;;;4.32;3.03;;;;;;;11.93;66.96;101669.06;685343;28;1244;-93
2023/09/25 01:43:08;;;;;;;4.63;3.35;;;;;;;11.92;67.06;101664.66;681827;28;1202;-92
2023/09/25 01:43:29;;;;;;;4.45;3.20;;;;;;;11.91;66.95;101663.78;684996;28;1364;-92
2023/09/25 01:43:51;;;;;;;3.60;3.10;;;;;;;11.96;66.92;101661.31;682111;28;1296;-92
2023/09/25 01:44:12;;;;;;;3.65;2.90;;;;;;;11.95;66.95;101667.41;678710;29;1398;-93
2023/09/25 01:44:33;;;;;;;3.70;2.95;;;;;;;11.91;66.90;101652.41;677246;29;1210;-93
2023/09/25 01:44:54;;;;;;;3.97;2.80;;;;;;;11.92;66.94;101662.03;679224;29;1381;-93
2023/09/25 01:45:16;;;;;;;4.03;2.90;;;;;;;11.91;67.17;101657.63;684108;28;1292;-92
2023/09/25 01:45:37;;;;;;;4.13;3.20;;;;;;;11.96;66.70;101665.66;680198;29;1340;-93
2023/09/25 01:45:59;;;;;;;3.67;3.20;;;;;;;11.97;66.89;101673.56;679742;29;1344;-93
2023/09/25 01:46:20;;;;;;;3.80;3.20;;;;;;;11.85;66.79;101657.44;679642;29;1176;-92
2023/09/25 01:46:41;;;;;;;3.70;3.10;;;;;;;11.81;66.89;101645.97;679936;28;1236;-92
2023/09/25 01:47:01;;;;;;;3.90;3.10;;;;;;;11.89;66.78;101659.31;684855;28;1272;-92
2023/09/25 01:47:22;;;;;;;3.65;3.05;;;;;;;11.83;67.17;101654.75;682407;28;1210;-93
2023/09/25 01:47:50;;;;;;;3.65;3.10;;;;;;;11.91;67.06;101668.09;679924;29;1190;-92
2023/09/25 01:48:11;;;;;;;4.25;3.50;;;;;;;11.91;67.06;101668.09;679800;29;1424;-93
2023/09/25 01:48:32;;;;;;;4.43;3.50;;;;;;;11.89;66.96;101659.31;681944;29;1528;-94
2023/09/25 01:48:52;;;;;;;4.70;3.40;;;;;;;11.86;66.96;101659.22;679537;29;1275;-93
2023/09/25 01:49:13;;;;;;;4.35;3.08;;;;;;;11.83;67.10;101653.84;677113;29;1191;-93
2023/09/25 01:49:34;;;;;;;4.15;2.92;;;;;;;11.79;67.15;101651.13;680697;29;1174;-92
2023/09/25 01:49:56;;;;;;;5.70;3.10;;;;;;;11.84;66.89;101658.25;679088;29;1277;-92
2023/09/25 01:50:21;;;;;;;5.30;3.00;;;;;;;11.81;67.07;101666.91;679378;29;1240;-92
2023/09/25 01:50:43;;;;;;;4.20;2.72;;;;;;;11.83;67.10;101666.94;685169;28;1434;-92
2023/09/25 01:51:10;;;;;;;3.90;2.67;;;;;;;11.73;67.07;101653.50;682332;28;1403;-93
2023/09/25 01:51:30;;;;;;;4.05;2.80;;;;;;;11.78;67.14;101662.44;683469;28;1116;-92